createdAt,value
2022-12-01T00:01:48.652Z,25.20
2022-12-01T00:04:18.055Z,25.23
2022-12-01T00:06:47.056Z,22.30
2022-12-01T00:09:34.133Z,21.55
2022-12-01T00:12:04.756Z,22.33
2022-12-01T00:14:34.081Z,20.05
2022-12-01T00:17:04.985Z,20.98
2022-12-01T00:19:34.582Z,21.52
2022-12-01T00:22:03.609Z,22.17
2022-12-01T00:24:32.989Z,21.13
2022-12-01T00:27:03.528Z,20.08
2022-12-01T00:29:32.925Z,21.77
2022-12-01T00:32:01.982Z,20.05
2022-12-01T00:34:31.490Z,20.45
2022-12-01T00:37:00.845Z,21.27
2022-12-01T00:39:30.421Z,20.60
2022-12-01T00:41:59.557Z,19.02
2022-12-01T00:44:30.356Z,20.13
2022-12-01T00:46:59.423Z,21.10
2022-12-01T00:49:28.911Z,22.00
2022-12-01T00:51:57.980Z,20.20
2022-12-01T00:54:27.371Z,19.58
2022-12-01T00:56:56.345Z,18.20
2022-12-01T00:59:25.767Z,18.52
2022-12-01T01:01:56.199Z,19.40
2022-12-01T01:04:25.888Z,19.92
2022-12-01T01:06:54.868Z,18.92
2022-12-01T01:09:24.284Z,17.85
2022-12-01T01:11:53.380Z,17.10
2022-12-01T01:14:24.195Z,19.27
2022-12-01T01:16:54.189Z,17.98
2022-12-01T01:19:25.366Z,18.10
2022-12-01T01:21:54.361Z,18.65
2022-12-01T01:24:23.874Z,18.45
2022-12-01T01:26:53.565Z,17.67
2022-12-01T01:29:23.280Z,17.50
2022-12-01T01:31:52.391Z,16.85
2022-12-01T01:34:21.741Z,16.48
2022-12-01T01:36:52.416Z,16.10
2022-12-01T01:39:22.243Z,18.98
2022-12-01T01:41:51.272Z,20.67
2022-12-01T01:44:50.228Z,22.63
2022-12-01T01:47:23.188Z,20.63
2022-12-01T01:49:53.566Z,18.52
2022-12-01T01:52:24.788Z,19.25
2022-12-01T01:54:56.939Z,18.20
2022-12-01T01:57:32.115Z,17.17
2022-12-01T02:00:08.051Z,15.65
2022-12-01T02:02:45.492Z,16.02
2022-12-01T02:05:19.166Z,14.35
2022-12-01T02:07:51.501Z,13.40
2022-12-01T02:10:23.473Z,12.98
2022-12-01T02:13:03.848Z,14.15
2022-12-01T02:15:39.295Z,12.73
2022-12-01T02:18:23.673Z,12.40
2022-12-01T02:21:28.685Z,13.27
2022-12-01T02:24:57.943Z,18.20
2022-12-01T02:27:45.529Z,11.73
2022-12-01T02:30:18.131Z,11.93
2022-12-01T02:33:03.247Z,12.85
2022-12-01T02:35:42.318Z,11.90
2022-12-01T02:38:17.844Z,12.07
2022-12-01T02:40:53.353Z,12.68
2022-12-01T02:43:28.987Z,11.73
2022-12-01T02:46:01.785Z,10.25
2022-12-01T02:48:34.774Z,10.80
2022-12-01T02:51:09.482Z,9.98
2022-12-01T02:53:39.191Z,8.98
2022-12-01T02:56:12.098Z,9.07
2022-12-01T02:58:41.667Z,10.38
2022-12-01T03:01:33.826Z,10.93
2022-12-01T03:04:26.260Z,9.88
2022-12-01T03:07:03.506Z,10.40
2022-12-01T03:09:47.666Z,10.38
2022-12-01T03:12:27.561Z,11.45
2022-12-01T03:15:06.918Z,10.40
2022-12-01T03:17:43.479Z,9.07
2022-12-01T03:20:20.866Z,10.43
2022-12-01T03:22:55.123Z,10.20
2022-12-01T03:25:27.195Z,9.98
2022-12-01T03:28:20.643Z,11.00
2022-12-01T03:36:08.283Z,10.55
2022-12-01T03:38:41.177Z,10.45
2022-12-01T03:41:15.982Z,8.75
2022-12-01T03:43:52.837Z,10.23
2022-12-01T03:46:30.794Z,9.18
2022-12-01T03:49:00.358Z,10.73
2022-12-01T03:51:40.717Z,11.10
2022-12-01T03:54:17.499Z,9.93
2022-12-01T03:56:56.302Z,9.75
2022-12-01T03:59:28.890Z,11.50
2022-12-01T04:01:58.732Z,9.77
2022-12-01T04:04:28.185Z,11.25
2022-12-01T04:06:59.911Z,11.65
2022-12-01T04:09:29.292Z,11.70
2022-12-01T04:12:15.626Z,11.32
2022-12-01T04:14:45.002Z,10.40
2022-12-01T04:17:14.139Z,9.98
2022-12-01T04:19:43.571Z,9.88
2022-12-01T04:22:14.085Z,9.18
2022-12-01T04:24:43.564Z,9.20
2022-12-01T04:27:12.705Z,9.88
2022-12-01T04:29:42.079Z,8.73
2022-12-01T04:32:11.625Z,8.95
2022-12-01T04:34:40.905Z,10.55
2022-12-01T04:37:12.079Z,8.45
2022-12-01T04:39:43.205Z,8.85
2022-12-01T04:42:12.692Z,9.45
2022-12-01T04:44:42.118Z,8.82
2022-12-01T04:47:11.210Z,8.63
2022-12-01T04:49:40.525Z,9.25
2022-12-01T04:52:09.579Z,8.68
2022-12-01T04:54:39.042Z,9.07
2022-12-01T04:57:09.557Z,9.27
2022-12-01T04:59:39.022Z,8.75
2022-12-01T05:02:08.129Z,8.60
2022-12-01T05:04:38.880Z,13.07
2022-12-01T05:07:08.102Z,13.43
2022-12-01T05:09:37.586Z,11.82
2022-12-01T05:12:08.696Z,11.40
2022-12-01T05:14:38.021Z,10.57
2022-12-01T05:17:07.096Z,9.20
2022-12-01T05:19:54.134Z,9.80
2022-12-01T05:22:49.395Z,9.82
2022-12-01T05:25:12.749Z,10.10
2022-12-01T05:27:43.111Z,10.50
2022-12-01T05:30:13.274Z,10.98
2022-12-01T05:32:42.258Z,10.48
2022-12-01T05:35:11.683Z,10.52
2022-12-01T05:37:40.775Z,10.75
2022-12-01T05:40:11.238Z,9.68
2022-12-01T05:42:40.237Z,10.07
2022-12-01T05:45:12.019Z,9.55
2022-12-01T05:47:41.140Z,9.88
2022-12-01T05:50:11.522Z,9.63
2022-12-01T05:52:40.623Z,9.85
2022-12-01T05:55:10.499Z,9.18
2022-12-01T05:57:39.597Z,10.85
2022-12-01T06:00:13.175Z,9.82
2022-12-01T06:02:42.959Z,9.57
2022-12-01T06:05:12.447Z,9.00
2022-12-01T06:07:41.576Z,8.23
2022-12-01T06:10:12.082Z,7.35
2022-12-01T06:12:41.814Z,7.80
2022-12-01T06:15:14.221Z,8.45
2022-12-01T06:17:43.347Z,8.60
2022-12-01T06:20:13.896Z,8.50
2022-12-01T06:22:42.968Z,7.72
2022-12-01T06:25:12.696Z,9.38
2022-12-01T06:27:41.691Z,9.10
2022-12-01T06:30:13.607Z,7.95
2022-12-01T06:32:42.758Z,8.77
2022-12-01T06:35:12.729Z,8.77
2022-12-01T06:37:41.740Z,8.77
2022-12-01T06:40:12.400Z,8.80
2022-12-01T06:42:41.416Z,10.07
2022-12-01T06:45:13.536Z,11.20
2022-12-01T06:47:42.759Z,11.40
2022-12-01T06:50:12.808Z,11.30
2022-12-01T06:52:42.037Z,11.70
2022-12-01T06:55:11.726Z,12.18
2022-12-01T06:57:41.090Z,11.40
2022-12-01T07:00:14.575Z,9.85
2022-12-01T07:02:44.404Z,9.27
2022-12-01T07:05:14.070Z,10.15
2022-12-01T07:07:43.330Z,10.82
2022-12-01T07:10:14.259Z,10.50
2022-12-01T07:12:43.404Z,11.63
2022-12-01T07:15:14.326Z,11.27
2022-12-01T07:17:43.352Z,10.40
2022-12-01T07:20:13.759Z,11.70
2022-12-01T07:22:43.262Z,10.90
2022-12-01T07:25:12.666Z,10.43
2022-12-01T07:27:41.685Z,10.43
2022-12-01T07:30:11.873Z,11.93
2022-12-01T07:32:42.275Z,11.80
2022-12-01T07:35:11.737Z,12.82
2022-12-01T07:37:40.705Z,11.75
2022-12-01T07:40:11.191Z,11.25
2022-12-01T07:42:43.303Z,11.68
2022-12-01T07:45:12.978Z,12.13
2022-12-01T07:47:44.592Z,11.90
2022-12-01T07:50:14.199Z,13.05
2022-12-01T07:52:43.357Z,12.13
2022-12-01T07:55:12.793Z,13.15
2022-12-01T07:57:41.849Z,12.27
2022-12-01T08:00:14.167Z,13.43
2022-12-01T08:02:44.592Z,11.32
2022-12-01T08:05:14.173Z,12.57
2022-12-01T08:07:43.398Z,12.73
2022-12-01T08:10:13.771Z,14.57
2022-12-01T08:12:42.775Z,12.68
2022-12-01T08:15:12.740Z,13.15
2022-12-01T08:17:43.304Z,13.18
2022-12-01T08:20:13.390Z,14.00
2022-12-01T08:22:42.855Z,12.98
2022-12-01T08:25:12.507Z,12.10
2022-12-01T08:27:41.800Z,12.15
2022-12-01T08:30:12.080Z,9.60
2022-12-01T08:32:41.162Z,9.68
2022-12-01T08:35:12.516Z,11.32
2022-12-01T08:37:41.618Z,9.38
2022-12-01T08:40:11.825Z,10.32
2022-12-01T08:42:40.915Z,10.68
2022-12-01T08:45:11.265Z,9.75
2022-12-01T08:47:40.357Z,10.60
2022-12-01T08:50:12.355Z,9.75
2022-12-01T08:52:41.441Z,10.38
2022-12-01T08:55:11.114Z,9.13
2022-12-01T08:57:40.348Z,9.35
2022-12-01T09:00:10.754Z,7.63
2022-12-01T09:02:39.842Z,7.65
2022-12-01T09:05:09.851Z,8.73
2022-12-01T09:07:41.194Z,18.05
2022-12-01T09:10:11.728Z,11.48
2022-12-01T09:12:40.911Z,8.30
2022-12-01T09:15:10.906Z,10.07
2022-12-01T09:17:39.907Z,8.88
2022-12-01T09:20:10.577Z,7.65
2022-12-01T09:22:41.076Z,8.07
2022-12-01T09:25:14.815Z,8.88
2022-12-01T09:27:43.871Z,9.43
2022-12-01T09:30:14.123Z,9.60
2022-12-01T09:32:43.194Z,11.02
2022-12-01T09:35:12.521Z,8.75
2022-12-01T09:37:42.885Z,9.10
2022-12-01T09:40:16.608Z,9.30
2022-12-01T09:42:48.831Z,10.38
2022-12-01T09:45:26.281Z,9.43
2022-12-01T09:47:57.921Z,9.30
2022-12-01T09:50:30.966Z,16.90
2022-12-01T09:53:04.981Z,11.95
2022-12-01T09:55:35.999Z,10.93
2022-12-01T09:58:15.737Z,8.18
2022-12-01T10:00:45.541Z,8.93
2022-12-01T10:03:25.394Z,8.20
2022-12-01T10:08:58.080Z,9.95
2022-12-01T10:11:33.969Z,8.68
2022-12-01T10:14:04.781Z,7.07
2022-12-01T10:16:42.455Z,7.00
2022-12-01T10:19:19.314Z,8.82
2022-12-01T10:22:02.098Z,8.40
2022-12-01T10:24:47.200Z,10.10
2022-12-01T10:27:28.860Z,9.73
2022-12-01T10:30:05.479Z,9.73
2022-12-01T10:32:47.085Z,7.35
2022-12-01T10:35:18.646Z,7.57
2022-12-01T10:37:51.168Z,7.28
2022-12-01T10:40:21.811Z,8.45
2022-12-01T10:42:52.495Z,8.05
2022-12-01T10:45:27.028Z,7.82
2022-12-01T10:48:17.845Z,6.23
2022-12-01T10:50:49.359Z,6.25
2022-12-01T10:53:30.977Z,6.05
2022-12-01T10:56:06.998Z,6.22
2022-12-01T10:58:45.501Z,6.50
2022-12-01T11:01:21.645Z,5.97
2022-12-01T11:03:53.953Z,6.32
2022-12-01T11:06:26.453Z,6.30
2022-12-01T11:09:00.228Z,6.68
2022-12-01T11:11:36.871Z,7.72
2022-12-01T11:14:18.087Z,7.80
2022-12-01T11:16:49.346Z,6.45
2022-12-01T11:19:29.168Z,6.00
2022-12-01T11:22:00.541Z,6.13
2022-12-01T11:24:42.391Z,7.63
2022-12-01T11:27:19.850Z,6.28
2022-12-01T11:29:52.133Z,5.95
2022-12-01T11:32:25.640Z,5.55
2022-12-01T11:34:58.764Z,4.07
2022-12-01T11:37:33.427Z,5.40
2022-12-01T11:40:16.673Z,4.93
2022-12-01T11:42:51.957Z,6.10
2022-12-01T11:45:29.091Z,8.80
2022-12-01T11:48:07.840Z,8.88
2022-12-01T11:50:42.898Z,5.72
2022-12-01T11:53:30.513Z,7.53
2022-12-01T11:56:16.100Z,7.82
2022-12-01T11:58:49.331Z,4.87
2022-12-01T12:01:30.710Z,7.88
2022-12-01T12:04:11.168Z,7.13
2022-12-01T12:06:50.387Z,10.38
2022-12-01T12:09:45.056Z,7.68
2022-12-01T12:12:29.309Z,6.85
2022-12-01T12:15:12.911Z,6.60
2022-12-01T12:18:06.743Z,6.18
2022-12-01T12:20:48.038Z,6.05
2022-12-01T12:23:44.874Z,7.00
2022-12-01T12:26:21.360Z,3.60
2022-12-01T12:29:18.714Z,5.03
2022-12-01T12:32:02.583Z,7.22
2022-12-01T12:34:46.685Z,6.10
2022-12-01T12:37:26.454Z,4.60
2022-12-01T12:40:27.792Z,4.40
2022-12-01T12:43:08.104Z,3.97
2022-12-01T12:45:56.846Z,5.05
2022-12-01T12:49:03.502Z,4.53
2022-12-01T12:51:38.112Z,4.50
2022-12-01T12:54:20.674Z,4.55
2022-12-01T12:56:56.478Z,3.83
2022-12-01T12:59:31.406Z,3.88
2022-12-01T13:02:09.890Z,4.30
2022-12-01T13:04:46.530Z,4.50
2022-12-01T13:07:33.450Z,4.30
2022-12-01T13:10:10.051Z,4.20
2022-12-01T13:12:44.843Z,4.38
2022-12-01T13:15:19.066Z,4.40
2022-12-01T13:17:52.516Z,4.70
2022-12-01T13:20:27.746Z,5.20
2022-12-01T13:22:59.825Z,4.88
2022-12-01T13:25:34.100Z,4.40
2022-12-01T13:28:06.017Z,4.55
2022-12-01T13:30:35.132Z,5.18
2022-12-01T13:33:06.516Z,6.13
2022-12-01T13:35:39.132Z,5.80
2022-12-01T13:38:29.599Z,5.00
2022-12-01T13:41:23.983Z,5.28
2022-12-01T13:44:00.785Z,5.47
2022-12-01T13:46:33.376Z,5.07
2022-12-01T13:49:04.662Z,5.35
2022-12-01T13:52:12.014Z,5.68
2022-12-01T13:55:03.425Z,7.57
2022-12-01T13:57:34.708Z,8.48
2022-12-01T14:00:21.170Z,7.38
2022-12-01T14:03:40.999Z,7.85
2022-12-01T14:06:27.408Z,10.38
2022-12-01T14:09:01.139Z,12.65
2022-12-01T14:11:32.936Z,11.60
2022-12-01T14:14:11.640Z,8.35
2022-12-01T14:16:48.915Z,8.60
2022-12-01T14:19:34.833Z,9.27
2022-12-01T14:22:05.770Z,8.27
2022-12-01T14:24:40.346Z,7.63
2022-12-01T14:27:11.949Z,6.73
2022-12-01T14:29:43.263Z,11.88
2022-12-01T14:32:24.176Z,14.50
2022-12-01T14:35:04.609Z,15.80
2022-12-01T14:37:50.841Z,17.08
2022-12-01T14:40:30.042Z,17.92
2022-12-01T14:43:18.253Z,18.17
2022-12-01T14:45:58.585Z,16.58
2022-12-01T14:48:35.679Z,15.48
2022-12-01T14:51:27.831Z,11.52
2022-12-01T14:53:58.673Z,8.68
2022-12-01T14:56:28.720Z,8.20
2022-12-01T14:59:00.031Z,8.65
2022-12-01T15:01:34.054Z,7.63
2022-12-01T15:04:05.889Z,8.05
2022-12-01T15:06:38.779Z,8.93
2022-12-01T15:12:03.714Z,8.23
2022-12-01T15:14:35.282Z,9.25
2022-12-01T15:17:06.354Z,9.10
2022-12-01T15:19:38.584Z,11.48
2022-12-01T15:22:17.929Z,14.57
2022-12-01T15:24:48.030Z,17.42
2022-12-01T15:27:31.517Z,16.63
2022-12-01T15:30:04.526Z,16.70
2022-12-01T15:32:37.811Z,25.42
2022-12-01T15:35:21.179Z,19.60
2022-12-01T15:37:53.492Z,12.75
2022-12-01T15:43:19.160Z,9.55
2022-12-01T15:45:52.301Z,11.25
2022-12-01T15:48:31.266Z,8.88
2022-12-01T15:51:09.928Z,8.60
2022-12-01T15:53:47.662Z,9.18
2022-12-01T15:56:17.738Z,8.48
2022-12-01T15:58:49.022Z,9.80
2022-12-01T16:01:20.671Z,9.23
2022-12-01T16:03:58.495Z,12.18
2022-12-01T16:06:31.563Z,12.15
2022-12-01T16:09:05.102Z,9.63
2022-12-01T16:11:34.772Z,9.55
2022-12-01T16:14:08.045Z,10.15
2022-12-01T16:16:44.321Z,9.48
2022-12-01T16:19:32.587Z,9.23
2022-12-01T16:22:13.254Z,10.10
2022-12-01T16:24:49.590Z,22.83
2022-12-01T16:27:23.691Z,20.38
2022-12-01T16:29:54.984Z,22.40
2022-12-01T16:32:29.387Z,19.98
2022-12-01T16:34:58.674Z,16.73
2022-12-01T16:37:28.718Z,15.55
2022-12-01T16:39:59.617Z,14.93
2022-12-01T16:42:29.515Z,13.88
2022-12-01T16:44:58.509Z,14.90
2022-12-01T16:47:27.951Z,16.77
2022-12-01T16:49:56.981Z,18.80
2022-12-01T16:55:31.531Z,15.15
2022-12-01T16:58:00.901Z,28.73
2022-12-01T17:00:30.210Z,29.08
2022-12-01T17:03:00.164Z,28.75
2022-12-01T17:05:29.369Z,27.77
2022-12-01T17:07:58.931Z,28.30
2022-12-01T17:10:29.361Z,25.33
2022-12-01T17:12:59.391Z,22.13
2022-12-01T17:15:28.850Z,26.00
2022-12-01T17:17:58.297Z,25.23
2022-12-01T17:20:27.391Z,26.40
2022-12-01T17:22:56.725Z,25.70
2022-12-01T17:25:25.982Z,25.58
2022-12-01T17:27:57.065Z,25.25
2022-12-01T17:30:26.596Z,25.42
2022-12-01T17:32:56.046Z,23.30
2022-12-01T17:35:25.232Z,23.75
2022-12-01T17:37:54.541Z,23.13
2022-12-01T17:40:25.192Z,24.73
2022-12-01T17:42:56.097Z,22.25
2022-12-01T17:45:25.338Z,23.50
2022-12-01T17:47:56.546Z,23.60
2022-12-01T17:50:26.485Z,24.73
2022-12-01T17:52:55.878Z,25.13
2022-12-01T17:55:25.203Z,24.67
2022-12-01T17:57:58.758Z,25.02
2022-12-01T18:00:29.070Z,24.98
2022-12-01T18:02:58.706Z,21.48
2022-12-01T18:05:29.379Z,22.58
2022-12-01T18:07:59.038Z,23.60
2022-12-01T18:10:28.159Z,19.38
2022-12-01T18:12:59.019Z,21.58
2022-12-01T18:15:31.783Z,20.08
2022-12-01T18:20:32.820Z,18.52
2022-12-01T18:23:02.168Z,27.55
2022-12-01T18:25:31.229Z,28.10
2022-12-01T18:28:03.051Z,26.75
2022-12-01T18:30:32.320Z,20.27
2022-12-01T18:33:02.386Z,20.65
2022-12-01T18:35:32.125Z,17.42
2022-12-01T18:38:01.709Z,15.07
2022-12-01T18:40:30.761Z,14.73
2022-12-01T18:43:01.650Z,14.57
2022-12-01T18:45:30.833Z,14.80
2022-12-01T18:48:00.297Z,14.38
2022-12-01T18:50:29.872Z,15.43
2022-12-01T18:52:59.243Z,18.55
2022-12-01T18:55:28.468Z,17.73
2022-12-01T18:57:58.048Z,18.05
2022-12-01T19:00:28.703Z,17.50
2022-12-01T19:02:58.496Z,17.73
2022-12-01T19:05:30.763Z,18.65
2022-12-01T19:08:00.977Z,20.95
2022-12-01T19:10:30.201Z,19.83
2022-12-01T19:12:59.592Z,20.67
2022-12-01T19:15:30.338Z,21.67
2022-12-01T19:17:59.787Z,21.20
2022-12-01T19:20:28.983Z,23.15
2022-12-01T19:22:58.355Z,23.42
2022-12-01T19:25:27.609Z,23.15
2022-12-01T19:27:57.133Z,24.48
2022-12-01T19:30:26.408Z,24.02
2022-12-01T19:32:57.302Z,29.63
2022-12-01T19:35:26.703Z,31.52
2022-12-01T19:37:56.060Z,31.13
2022-12-01T19:40:25.178Z,30.85
2022-12-01T19:42:55.665Z,30.90
2022-12-01T19:45:25.703Z,32.67
2022-12-01T19:47:56.536Z,27.95
2022-12-01T19:50:25.831Z,28.50
2022-12-01T19:52:55.290Z,25.63
2022-12-01T19:55:24.348Z,27.17
2022-12-01T19:57:55.027Z,27.65
2022-12-01T20:00:25.865Z,26.30
2022-12-01T20:02:57.772Z,24.90
2022-12-01T20:05:27.040Z,23.08
2022-12-01T20:07:56.443Z,24.73
2022-12-01T20:10:25.667Z,23.92
2022-12-01T20:12:55.230Z,28.23
2022-12-01T20:15:24.321Z,27.52
2022-12-01T20:17:53.987Z,27.52
2022-12-01T20:20:25.688Z,28.13
2022-12-01T20:22:55.121Z,29.92
2022-12-01T20:25:24.292Z,28.90
2022-12-01T20:27:53.636Z,29.60
2022-12-01T20:30:22.759Z,33.10
2022-12-01T20:32:52.079Z,34.63
2022-12-01T20:35:21.203Z,26.80
2022-12-01T20:37:51.968Z,27.65
2022-12-01T20:40:21.756Z,26.38
2022-12-01T20:42:51.158Z,25.40
2022-12-01T20:45:20.523Z,24.38
2022-12-01T20:47:49.902Z,25.77
2022-12-01T20:50:19.061Z,24.90
2022-12-01T20:52:48.558Z,24.50
2022-12-01T20:55:19.129Z,23.17
2022-12-01T20:57:48.535Z,37.13
2022-12-01T21:00:18.438Z,38.38
2022-12-01T21:02:48.188Z,36.55
2022-12-01T21:05:17.573Z,33.63
2022-12-01T21:07:47.193Z,33.22
2022-12-01T21:10:19.954Z,32.65
2022-12-01T21:13:12.018Z,34.45
2022-12-01T21:15:47.827Z,35.53
2022-12-01T21:18:23.167Z,38.38
2022-12-01T21:20:57.900Z,38.10
2022-12-01T21:23:28.241Z,28.52
2022-12-01T21:25:58.209Z,23.58
2022-12-01T21:28:28.997Z,20.77
2022-12-01T21:31:11.629Z,20.80
2022-12-01T21:33:41.247Z,20.65
2022-12-01T21:36:17.408Z,19.95
2022-12-01T21:38:49.392Z,22.30
2022-12-01T21:41:25.282Z,27.48
2022-12-01T21:43:57.445Z,31.25
2022-12-01T21:46:26.879Z,33.05
2022-12-01T21:48:56.621Z,32.30
2022-12-01T21:51:26.331Z,33.47
2022-12-01T21:53:57.983Z,32.65
2022-12-01T21:56:31.672Z,32.78
2022-12-01T21:59:18.071Z,25.95
2022-12-01T22:04:22.638Z,24.55
2022-12-01T22:06:54.459Z,22.30
2022-12-01T22:09:27.469Z,23.50
2022-12-01T22:11:59.227Z,22.35
2022-12-01T22:14:35.730Z,22.77
2022-12-01T22:17:18.050Z,22.55
2022-12-01T22:19:54.913Z,23.20
2022-12-01T22:22:26.433Z,23.60
2022-12-01T22:24:59.345Z,22.40
2022-12-01T22:27:33.545Z,20.10
2022-12-01T22:30:17.821Z,21.50
2022-12-01T22:32:55.965Z,23.45
2022-12-01T22:35:28.383Z,22.65
2022-12-01T22:38:12.147Z,23.85
2022-12-01T22:40:44.399Z,21.25
2022-12-01T22:43:38.194Z,22.67
2022-12-01T22:46:42.184Z,20.15
2022-12-01T22:49:19.564Z,19.33
2022-12-01T22:51:51.222Z,18.02
2022-12-01T22:54:35.203Z,17.55
2022-12-01T22:57:36.661Z,17.50
2022-12-01T23:00:17.274Z,17.85
2022-12-01T23:02:50.358Z,17.52
2022-12-01T23:05:24.770Z,15.90
2022-12-01T23:07:55.301Z,15.43
2022-12-01T23:10:26.758Z,16.02
2022-12-01T23:12:59.096Z,15.88
2022-12-01T23:15:33.339Z,16.38
2022-12-01T23:18:12.787Z,16.92
2022-12-01T23:20:43.345Z,14.90
2022-12-01T23:23:15.987Z,14.30
2022-12-01T23:25:46.019Z,14.90
2022-12-01T23:28:16.216Z,13.80
2022-12-01T23:30:47.332Z,15.27
2022-12-01T23:33:21.004Z,13.80
2022-12-01T23:35:55.044Z,13.60
2022-12-01T23:38:26.329Z,14.15
2022-12-01T23:40:58.085Z,12.98
2022-12-01T23:43:29.388Z,16.25
2022-12-01T23:46:05.261Z,15.15
2022-12-01T23:48:39.848Z,15.60
2022-12-01T23:51:19.658Z,15.77
2022-12-01T23:53:49.313Z,14.70
2022-12-01T23:56:21.737Z,14.68
2022-12-01T23:58:51.817Z,13.38
